Time;durP1;ratioP1;P1;durP2;ratioP2;P2;SDS_P1;SDS_P2;PMS_P1;PMS_P2;Temp;Humidity;BMP_temperature;BMP_pressure;BME280_temperature;BME280_humidity;BME280_pressure;Samples;Min_cycle;Max_cycle;Signal;HPM_P1;HPM_P2
2023/02/04 00:00:50;;;;;;;12.00;1.30;;;7.80;99.90;;;;;;5029000;28;20025;-88
2023/02/04 00:03:16;;;;;;;14.15;1.70;;;7.70;99.90;;;;;;5029335;28;20409;-88
2023/02/04 00:05:42;;;;;;;17.15;2.15;;;7.70;99.90;;;;;;5046413;28;20025;-88
2023/02/04 00:08:08;;;;;;;19.08;2.85;;;7.70;99.90;;;;;;5038244;28;20114;-88
2023/02/04 00:10:34;;;;;;;18.80;1.50;;;7.70;99.90;;;;;;5029310;28;20086;-88
2023/02/04 00:13:00;;;;;;;18.77;1.95;;;7.70;99.90;;;;;;5026783;28;20504;-88
2023/02/04 00:15:26;;;;;;;15.82;2.08;;;7.70;99.90;;;;;;5028380;28;20120;-87
2023/02/04 00:17:51;;;;;;;17.27;2.97;;;7.60;99.90;;;;;;5028171;28;20028;-88
2023/02/04 00:20:18;;;;;;;15.20;2.45;;;7.70;99.90;;;;;;5026753;28;20072;-88
2023/02/04 00:22:44;;;;;;;15.77;1.40;;;7.60;99.90;;;;;;5028756;28;20071;-89
2023/02/04 00:25:10;;;;;;;17.38;1.60;;;7.60;99.90;;;;;;5026047;28;20013;-88
2023/02/04 00:27:35;;;;;;;18.38;1.30;;;7.60;99.90;;;;;;5031673;28;20025;-88
2023/02/04 00:30:01;;;;;;;20.20;1.75;;;7.60;99.90;;;;;;5028215;28;20097;-88
2023/02/04 00:32:27;;;;;;;16.52;1.80;;;7.60;99.90;;;;;;5024780;28;20096;-88
2023/02/04 00:34:52;;;;;;;15.73;1.27;;;7.50;99.90;;;;;;5026834;28;20041;-89
2023/02/04 00:37:18;;;;;;;16.10;1.45;;;7.50;99.90;;;;;;5031513;28;20029;-88
2023/02/04 00:39:43;;;;;;;16.27;1.63;;;7.50;99.90;;;;;;5029572;28;20021;-89
2023/02/04 00:42:09;;;;;;;21.05;1.65;;;7.50;99.90;;;;;;5029282;28;20036;-88
2023/02/04 00:44:35;;;;;;;19.35;1.80;;;7.40;99.90;;;;;;5029842;28;20026;-88
2023/02/04 00:47:01;;;;;;;19.08;1.38;;;7.40;99.90;;;;;;5030476;28;20021;-88
2023/02/04 00:49:26;;;;;;;19.52;2.22;;;7.30;99.90;;;;;;5029824;28;20057;-89
2023/02/04 00:51:52;;;;;;;22.83;1.70;;;7.30;99.90;;;;;;5032733;28;20033;-88
2023/02/04 00:54:17;;;;;;;26.02;2.15;;;7.20;99.90;;;;;;5031352;28;20029;-88
2023/02/04 00:56:43;;;;;;;22.63;2.05;;;7.20;99.90;;;;;;5026288;28;20025;-88
2023/02/04 00:59:09;;;;;;;22.88;1.70;;;7.10;99.90;;;;;;5028229;28;20129;-88
2023/02/04 01:01:35;;;;;;;18.65;1.77;;;7.10;99.90;;;;;;5030773;28;20474;-88
2023/02/04 01:04:01;;;;;;;12.82;1.27;;;7.00;99.90;;;;;;5033747;28;20051;-88
2023/02/04 01:06:26;;;;;;;18.08;1.80;;;7.00;99.90;;;;;;5032977;28;20049;-89
2023/02/04 01:08:52;;;;;;;21.42;2.17;;;6.90;99.90;;;;;;5030348;28;20049;-88
2023/02/04 01:11:18;;;;;;;18.70;1.40;;;6.80;99.90;;;;;;5032086;28;20038;-88
2023/02/04 01:13:43;;;;;;;18.48;2.42;;;6.80;99.90;;;;;;5031434;28;20029;-88
2023/02/04 01:16:09;;;;;;;21.35;2.58;;;6.70;99.90;;;;;;5032971;28;20501;-88
2023/02/04 01:18:35;;;;;;;21.85;1.88;;;6.70;99.90;;;;;;5031521;28;20444;-88
2023/02/04 01:21:00;;;;;;;23.77;2.30;;;6.70;99.90;;;;;;5034834;28;20017;-88
2023/02/04 01:23:26;;;;;;;20.60;2.30;;;6.70;99.90;;;;;;5034539;28;20045;-88
2023/02/04 01:25:54;;;;;;;22.42;2.55;;;6.70;99.90;;;;;;5045404;28;20036;-88
2023/02/04 01:28:20;;;;;;;19.23;1.65;;;6.60;99.90;;;;;;5036755;28;20025;-88
2023/02/04 01:30:45;;;;;;;21.25;2.10;;;6.70;99.90;;;;;;5036205;28;20075;-88
2023/02/04 01:33:11;;;;;;;16.70;1.45;;;6.70;99.90;;;;;;5031367;28;20025;-89
2023/02/04 01:35:36;;;;;;;22.52;2.80;;;6.70;99.90;;;;;;5031971;28;20045;-88
2023/02/04 01:38:02;;;;;;;18.67;2.38;;;6.70;99.90;;;;;;5032199;28;20103;-88
2023/02/04 01:40:27;;;;;;;20.88;1.90;;;6.70;99.90;;;;;;5030888;28;20488;-88
2023/02/04 01:42:53;;;;;;;18.98;1.90;;;6.70;99.90;;;;;;5034402;28;20033;-88
2023/02/04 01:45:19;;;;;;;21.58;1.70;;;6.60;99.90;;;;;;5035106;28;20026;-88
2023/02/04 01:47:45;;;;;;;25.90;1.85;;;6.50;99.90;;;;;;5034831;28;20461;-88
2023/02/04 01:50:16;;;;;;;22.10;1.95;;;6.50;99.90;;;;;;5022553;28;20064;-88
2023/02/04 01:52:43;;;;;;;19.98;1.90;;;6.50;99.90;;;;;;5022639;28;20061;-88
2023/02/04 01:55:18;;;;;;;23.33;2.35;;;6.50;99.90;;;;;;5035338;28;20104;-87
2023/02/04 01:57:44;;;;;;;19.65;1.85;;;6.50;99.90;;;;;;5032911;28;20036;-89
2023/02/04 02:00:20;;;;;;;25.23;2.20;;;6.50;99.90;;;;;;5031299;28;20088;-88
2023/02/04 02:02:50;;;;;;;21.10;2.17;;;6.60;99.90;;;;;;5035251;28;20041;-88
2023/02/04 02:05:20;;;;;;;22.13;2.28;;;6.60;99.90;;;;;;5030962;28;20025;-88
2023/02/04 02:07:47;;;;;;;15.30;2.00;;;6.50;99.90;;;;;;5028954;28;20025;-88
2023/02/04 02:10:14;;;;;;;20.42;1.65;;;6.50;99.90;;;;;;5031910;28;20010;-88
2023/02/04 02:12:40;;;;;;;15.27;1.75;;;6.50;99.90;;;;;;5031931;28;21088;-88
2023/02/04 02:15:07;;;;;;;20.98;2.22;;;6.40;99.90;;;;;;5031299;28;20033;-88
2023/02/04 02:17:33;;;;;;;18.98;2.08;;;6.40;99.90;;;;;;5034544;28;20025;-89
2023/02/04 02:19:59;;;;;;;28.25;2.45;;;6.40;99.90;;;;;;5033642;28;20100;-88
2023/02/04 02:22:30;;;;;;;30.13;2.40;;;6.40;99.90;;;;;;5030669;28;20378;-88
2023/02/04 02:24:56;;;;;;;28.13;2.50;;;6.40;99.90;;;;;;5030786;28;20029;-88
2023/02/04 02:27:22;;;;;;;27.35;2.58;;;6.30;99.90;;;;;;5030019;28;20060;-88
2023/02/04 02:29:48;;;;;;;27.52;3.40;;;6.30;99.90;;;;;;5029950;28;20106;-88
2023/02/04 02:32:15;;;;;;;25.25;2.63;;;6.40;99.90;;;;;;5030502;28;20048;-88
2023/02/04 02:34:42;;;;;;;27.65;3.17;;;6.30;99.90;;;;;;5030472;28;20022;-88
2023/02/04 02:37:08;;;;;;;24.27;2.38;;;6.30;99.90;;;;;;5047666;28;20033;-88
2023/02/04 02:39:36;;;;;;;30.13;2.97;;;6.30;99.90;;;;;;5046492;28;20025;-87
2023/02/04 02:42:02;;;;;;;24.33;2.45;;;6.30;99.90;;;;;;5046401;28;20018;-87
2023/02/04 02:44:28;;;;;;;22.02;2.83;;;6.30;99.90;;;;;;5025943;28;20049;-88
2023/02/04 02:46:54;;;;;;;23.40;2.83;;;6.20;99.90;;;;;;5032872;28;20093;-88
2023/02/04 02:49:21;;;;;;;28.35;3.10;;;6.20;99.90;;;;;;5035568;28;20029;-88
2023/02/04 02:51:47;;;;;;;27.02;2.30;;;6.20;99.90;;;;;;5034427;28;20581;-89
2023/02/04 02:54:21;;;;;;;22.00;3.05;;;6.20;99.90;;;;;;5032203;28;20057;-89
2023/02/04 02:56:47;;;;;;;20.08;2.20;;;6.20;99.90;;;;;;5031016;28;20021;-88
2023/02/04 02:59:14;;;;;;;24.02;2.55;;;6.20;99.90;;;;;;5031617;28;20500;-88
2023/02/04 03:01:40;;;;;;;33.63;2.85;;;6.10;99.90;;;;;;5033266;28;20057;-89
2023/02/04 03:04:07;;;;;;;28.38;2.75;;;6.20;99.90;;;;;;5031586;28;20037;-89
2023/02/04 03:06:33;;;;;;;24.95;2.80;;;6.20;99.90;;;;;;5031784;28;20084;-89
2023/02/04 03:08:58;;;;;;;21.08;2.30;;;6.20;99.90;;;;;;5029731;28;20053;-89
2023/02/04 03:11:25;;;;;;;26.63;2.72;;;6.20;99.90;;;;;;5029459;28;20087;-89
2023/02/04 03:13:51;;;;;;;25.63;3.13;;;6.20;99.90;;;;;;5030860;28;20450;-89
2023/02/04 03:16:17;;;;;;;25.30;3.95;;;6.20;99.90;;;;;;5026503;28;20360;-89
2023/02/04 03:18:44;;;;;;;29.05;2.95;;;6.10;99.90;;;;;;5027511;28;20420;-89
2023/02/04 03:21:10;;;;;;;37.03;3.30;;;6.10;99.90;;;;;;5030910;28;20032;-89
2023/02/04 03:23:36;;;;;;;37.60;4.10;;;6.00;99.90;;;;;;5031009;28;20041;-89
2023/02/04 03:26:03;;;;;;;35.75;4.00;;;6.00;99.90;;;;;;5028576;28;20026;-89
2023/02/04 03:28:30;;;;;;;33.33;3.88;;;6.00;99.90;;;;;;5034806;28;20026;-89
2023/02/04 03:30:55;;;;;;;36.15;4.82;;;5.90;99.90;;;;;;5030576;28;20029;-89
2023/02/04 03:33:23;;;;;;;33.60;3.65;;;5.90;99.90;;;;;;5031604;28;20037;-89
2023/02/04 03:35:50;;;;;;;40.67;4.60;;;5.90;99.90;;;;;;5028016;28;20124;-89
2023/02/04 03:38:16;;;;;;;28.88;4.47;;;5.90;99.90;;;;;;5030702;28;20055;-89
2023/02/04 03:40:41;;;;;;;30.00;5.22;;;5.90;99.90;;;;;;5031395;28;20025;-89
2023/02/04 03:43:07;;;;;;;31.00;4.38;;;6.00;99.90;;;;;;5031441;28;20083;-89
2023/02/04 03:45:32;;;;;;;35.88;7.60;;;6.00;99.90;;;;;;5030600;28;20102;-89
2023/02/04 03:47:58;;;;;;;29.83;4.70;;;6.10;99.90;;;;;;5028057;28;20055;-89
2023/02/04 03:50:23;;;;;;;34.03;5.30;;;6.10;99.90;;;;;;5032073;28;20021;-89
2023/02/04 03:52:50;;;;;;;32.50;5.32;;;6.20;99.90;;;;;;5029933;28;20058;-88
2023/02/04 03:55:16;;;;;;;34.95;5.43;;;6.20;99.90;;;;;;5032671;28;20017;-89
2023/02/04 03:57:41;;;;;;;37.58;5.43;;;6.20;99.90;;;;;;5030489;28;20029;-89
2023/02/04 04:00:08;;;;;;;32.55;5.68;;;6.20;99.90;;;;;;5028472;28;20025;-89
2023/02/04 04:02:33;;;;;;;33.78;6.03;;;6.20;99.90;;;;;;5028810;28;20083;-89
2023/02/04 04:04:59;;;;;;;35.20;5.63;;;6.20;99.90;;;;;;5035010;28;20033;-89
2023/02/04 04:07:24;;;;;;;37.05;6.20;;;6.20;99.90;;;;;;5031470;28;20067;-89
2023/02/04 04:09:50;;;;;;;39.17;7.93;;;6.10;99.90;;;;;;5028571;28;20040;-89
2023/02/04 04:12:15;;;;;;;34.00;6.57;;;6.10;99.90;;;;;;5036332;28;20138;-88
2023/02/04 04:14:41;;;;;;;46.22;7.65;;;6.10;99.90;;;;;;5034054;28;20032;-88
2023/02/04 04:17:06;;;;;;;44.83;6.72;;;6.10;99.90;;;;;;5029908;28;20032;-88
2023/02/04 04:19:32;;;;;;;40.38;6.15;;;6.10;99.90;;;;;;5029607;28;20029;-89
2023/02/04 04:21:58;;;;;;;33.88;5.63;;;6.10;99.90;;;;;;5026306;28;20521;-89
2023/02/04 04:24:23;;;;;;;42.50;6.70;;;6.10;99.90;;;;;;5029109;28;20040;-88
2023/02/04 04:26:49;;;;;;;44.92;6.57;;;6.00;99.90;;;;;;5031566;28;20021;-88
2023/02/04 04:29:14;;;;;;;43.83;6.43;;;6.00;99.90;;;;;;5027711;28;20031;-88
2023/02/04 04:31:40;;;;;;;36.35;5.72;;;6.00;99.90;;;;;;5029385;28;20030;-88
2023/02/04 04:34:05;;;;;;;40.85;5.53;;;6.00;99.90;;;;;;5028966;28;20047;-88
2023/02/04 04:36:31;;;;;;;34.63;6.43;;;6.00;99.90;;;;;;5030746;28;20037;-89
2023/02/04 04:38:56;;;;;;;43.75;5.63;;;6.00;99.90;;;;;;5051652;28;20029;-88
2023/02/04 04:41:22;;;;;;;38.95;6.30;;;6.00;99.90;;;;;;5034057;28;20056;-89
2023/02/04 04:43:47;;;;;;;37.53;6.60;;;6.00;99.90;;;;;;5032368;28;20407;-88
2023/02/04 04:46:13;;;;;;;35.08;6.07;;;6.10;99.90;;;;;;5032461;28;20542;-89
2023/02/04 04:48:38;;;;;;;32.95;5.63;;;6.10;99.90;;;;;;5031269;28;20497;-88
2023/02/04 04:51:04;;;;;;;41.47;6.32;;;6.00;99.90;;;;;;5025976;28;20025;-88
2023/02/04 04:53:29;;;;;;;44.42;6.57;;;6.00;99.90;;;;;;5032878;28;20034;-88
2023/02/04 04:55:55;;;;;;;41.63;6.85;;;6.10;99.90;;;;;;5030236;28;20037;-88
2023/02/04 04:58:20;;;;;;;36.70;6.18;;;6.10;99.90;;;;;;5036463;28;20052;-89
2023/02/04 05:00:47;;;;;;;45.22;6.20;;;6.10;99.90;;;;;;5035889;28;20031;-89
2023/02/04 05:03:12;;;;;;;43.08;7.25;;;6.10;99.90;;;;;;5028048;28;20062;-89
2023/02/04 05:05:40;;;;;;;40.50;5.90;;;6.00;99.90;;;;;;5016996;28;20022;-89
2023/02/04 05:08:11;;;;;;;48.53;6.30;;;6.00;99.90;;;;;;5033512;28;20025;-89
2023/02/04 05:10:40;;;;;;;30.23;5.13;;;6.00;99.90;;;;;;5035757;28;20021;-89
2023/02/04 05:13:06;;;;;;;33.65;5.75;;;5.90;99.90;;;;;;5031222;28;20292;-88
2023/02/04 05:15:31;;;;;;;39.60;5.38;;;5.90;99.90;;;;;;5034279;28;20022;-88
2023/02/04 05:17:57;;;;;;;31.85;5.72;;;5.90;99.90;;;;;;5030181;28;20404;-88
2023/02/04 05:20:23;;;;;;;38.92;6.93;;;5.90;99.90;;;;;;5030692;28;20446;-89
2023/02/04 05:22:49;;;;;;;53.65;7.53;;;5.90;99.90;;;;;;5033400;28;20527;-88
2023/02/04 05:25:15;;;;;;;38.38;6.45;;;5.80;99.90;;;;;;5036205;28;20025;-88
2023/02/04 05:27:44;;;;;;;41.83;7.97;;;5.90;99.90;;;;;;5033902;28;20034;-89
2023/02/04 05:30:11;;;;;;;36.13;6.65;;;5.80;99.90;;;;;;5030901;28;20107;-89
2023/02/04 05:32:37;;;;;;;43.08;7.13;;;5.80;99.90;;;;;;5034296;28;20052;-88
2023/02/04 05:35:03;;;;;;;45.38;6.30;;;5.80;99.90;;;;;;5032117;28;20041;-89
2023/02/04 05:37:29;;;;;;;44.90;8.10;;;5.80;99.90;;;;;;5031059;28;20029;-88
2023/02/04 05:39:54;;;;;;;39.05;7.70;;;5.80;99.90;;;;;;5031318;28;20038;-88
2023/02/04 05:42:20;;;;;;;45.42;6.15;;;5.70;99.90;;;;;;5030113;28;20025;-88
2023/02/04 05:44:45;;;;;;;34.88;5.82;;;5.70;99.90;;;;;;5029475;28;20043;-88
2023/02/04 05:47:11;;;;;;;39.03;6.28;;;5.80;99.90;;;;;;5030048;28;20053;-87
2023/02/04 05:49:36;;;;;;;33.03;5.95;;;5.80;99.90;;;;;;5032335;28;20105;-88
2023/02/04 05:52:02;;;;;;;37.67;7.03;;;5.80;99.90;;;;;;5031550;28;20932;-89
2023/02/04 05:54:28;;;;;;;32.38;6.40;;;5.80;99.90;;;;;;5030167;28;20512;-88
2023/02/04 05:56:53;;;;;;;31.50;6.65;;;5.80;99.90;;;;;;5030130;28;20025;-88
2023/02/04 05:59:19;;;;;;;36.60;5.80;;;5.80;99.90;;;;;;5027812;28;20025;-89
2023/02/04 06:01:44;;;;;;;36.90;6.68;;;5.80;99.90;;;;;;5030310;28;20033;-89
2023/02/04 06:04:10;;;;;;;33.47;6.60;;;5.80;99.90;;;;;;5031635;28;20041;-88
2023/02/04 06:06:35;;;;;;;32.28;6.82;;;5.80;99.90;;;;;;5035352;28;20033;-88
2023/02/04 06:09:01;;;;;;;34.95;6.50;;;5.80;99.90;;;;;;5033377;28;20093;-89
2023/02/04 06:11:27;;;;;;;36.50;7.25;;;5.80;99.90;;;;;;5031386;28;20032;-88
2023/02/04 06:13:53;;;;;;;34.10;6.57;;;5.80;99.90;;;;;;5033458;28;20029;-88
2023/02/04 06:16:18;;;;;;;46.13;8.05;;;5.80;99.90;;;;;;5030805;28;20021;-89
2023/02/04 06:18:44;;;;;;;35.00;7.63;;;5.80;99.90;;;;;;5011125;28;20502;-88
2023/02/04 06:21:09;;;;;;;31.15;7.47;;;5.90;99.90;;;;;;5029857;28;20465;-89
2023/02/04 06:23:35;;;;;;;36.58;6.57;;;5.90;99.90;;;;;;5029976;28;20029;-89
2023/02/04 06:26:01;;;;;;;35.38;7.10;;;5.90;99.90;;;;;;5032474;28;20121;-89
2023/02/04 06:28:27;;;;;;;29.77;7.28;;;6.00;99.90;;;;;;5031926;28;20056;-89
2023/02/04 06:30:52;;;;;;;35.22;8.65;;;6.00;99.90;;;;;;5051228;28;20025;-89
2023/02/04 06:33:18;;;;;;;38.90;7.25;;;6.00;99.90;;;;;;5034925;28;20021;-89
2023/02/04 06:35:43;;;;;;;37.75;7.57;;;6.00;99.90;;;;;;5030666;28;20042;-89
2023/02/04 06:38:09;;;;;;;44.38;8.00;;;6.00;99.90;;;;;;5030135;28;20116;-89
2023/02/04 06:40:34;;;;;;;38.13;7.60;;;6.00;99.90;;;;;;5029713;28;20021;-90
2023/02/04 06:43:00;;;;;;;35.00;8.32;;;6.10;99.90;;;;;;5028175;28;20044;-89
2023/02/04 06:45:25;;;;;;;39.80;8.07;;;6.00;99.90;;;;;;5029922;28;20033;-90
2023/02/04 06:47:51;;;;;;;36.83;8.82;;;6.10;99.90;;;;;;5025673;28;20505;-90
2023/02/04 06:50:19;;;;;;;41.88;8.90;;;6.10;99.90;;;;;;5028745;28;20030;-90
2023/02/04 06:52:45;;;;;;;41.92;9.50;;;6.10;99.90;;;;;;5029518;28;20034;-90
2023/02/04 06:55:15;;;;;;;51.67;8.77;;;6.10;99.90;;;;;;5026625;28;20033;-89
2023/02/04 06:57:41;;;;;;;42.85;8.48;;;6.10;99.90;;;;;;5024083;28;20064;-89
2023/02/04 07:00:10;;;;;;;44.10;8.45;;;6.10;99.90;;;;;;5028503;28;20129;-89
2023/02/04 07:02:36;;;;;;;46.88;8.02;;;6.10;99.90;;;;;;5024950;28;20021;-90
2023/02/04 07:05:02;;;;;;;45.72;7.88;;;6.10;99.90;;;;;;5028089;28;20036;-89
2023/02/04 07:07:28;;;;;;;50.55;8.18;;;6.20;99.90;;;;;;5027735;28;20030;-89
2023/02/04 07:09:53;;;;;;;52.22;8.52;;;6.10;99.90;;;;;;5032686;28;20029;-88
2023/02/04 07:12:19;;;;;;;48.38;9.15;;;6.10;99.90;;;;;;5031636;28;20032;-90
2023/02/04 07:14:44;;;;;;;53.67;9.27;;;6.20;99.90;;;;;;5025291;28;20457;-90
2023/02/04 07:17:10;;;;;;;45.03;8.68;;;6.10;99.90;;;;;;5040454;28;20036;-90
2023/02/04 07:19:36;;;;;;;44.47;8.88;;;6.10;99.90;;;;;;5032701;28;20131;-89
2023/02/04 07:22:03;;;;;;;46.53;9.20;;;6.10;99.90;;;;;;5035728;28;20021;-90
2023/02/04 07:24:28;;;;;;;50.15;9.75;;;6.20;99.90;;;;;;5029919;28;20030;-91
2023/02/04 07:26:54;;;;;;;48.25;9.15;;;6.20;99.90;;;;;;5033922;28;20179;-90
2023/02/04 07:29:19;;;;;;;43.83;8.82;;;6.20;99.90;;;;;;5028045;28;20032;-90
2023/02/04 07:31:46;;;;;;;53.05;9.75;;;6.20;99.90;;;;;;5034052;28;20029;-90
2023/02/04 07:34:14;;;;;;;53.85;10.23;;;6.20;99.90;;;;;;5033120;28;20057;-91
2023/02/04 07:36:40;;;;;;;52.97;10.05;;;6.20;99.90;;;;;;5034167;28;20057;-91
2023/02/04 07:39:06;;;;;;;56.45;10.43;;;6.20;99.90;;;;;;5033619;28;20065;-91
2023/02/04 07:41:32;;;;;;;53.75;11.15;;;6.20;99.90;;;;;;5033981;28;20028;-90
2023/02/04 07:43:58;;;;;;;52.97;10.43;;;6.30;99.90;;;;;;5027512;28;20037;-90
2023/02/04 07:46:24;;;;;;;61.90;11.30;;;6.30;99.90;;;;;;5028555;28;20017;-90
2023/02/04 07:48:49;;;;;;;54.58;10.75;;;6.30;99.90;;;;;;5030418;28;20029;-89
2023/02/04 07:51:15;;;;;;;44.53;9.70;;;6.30;99.90;;;;;;5014611;28;20374;-90
2023/02/04 07:53:40;;;;;;;46.38;10.13;;;6.30;99.90;;;;;;5033326;28;20021;-89
2023/02/04 07:56:06;;;;;;;45.58;9.88;;;6.40;99.90;;;;;;5032164;28;20088;-89
2023/02/04 07:58:32;;;;;;;58.92;12.70;;;6.40;99.90;;;;;;5031486;28;20028;-90
2023/02/04 08:00:57;;;;;;;52.63;10.70;;;6.40;99.90;;;;;;5023059;28;20044;-90
2023/02/04 08:03:23;;;;;;;53.65;11.63;;;6.40;99.90;;;;;;5029908;28;20052;-91
2023/02/04 08:05:48;;;;;;;55.35;11.75;;;6.40;99.90;;;;;;5030803;28;20025;-90
2023/02/04 08:08:14;;;;;;;44.38;10.82;;;6.50;99.90;;;;;;5029183;28;20080;-91
2023/02/04 08:10:40;;;;;;;43.90;11.50;;;6.50;99.90;;;;;;5028467;28;20051;-91
2023/02/04 08:13:05;;;;;;;50.35;12.93;;;6.50;99.90;;;;;;5025983;28;20428;-90
2023/02/04 08:15:31;;;;;;;47.55;11.77;;;6.50;99.90;;;;;;5030070;28;20029;-90
2023/02/04 08:17:57;;;;;;;47.95;11.98;;;6.60;99.90;;;;;;5027195;28;20035;-91
2023/02/04 08:20:23;;;;;;;52.42;12.95;;;6.60;99.90;;;;;;5026918;28;20125;-90
2023/02/04 08:22:48;;;;;;;50.80;11.90;;;6.70;99.90;;;;;;5033468;28;20867;-89
2023/02/04 08:25:14;;;;;;;46.35;13.00;;;6.70;99.90;;;;;;5034668;28;20542;-90
2023/02/04 08:27:40;;;;;;;41.65;12.00;;;6.80;99.90;;;;;;5034133;28;20485;-91
2023/02/04 08:30:06;;;;;;;56.35;12.50;;;6.80;99.90;;;;;;5041369;28;20021;-90
2023/02/04 08:32:32;;;;;;;45.33;13.00;;;6.80;99.90;;;;;;5041001;28;20021;-90
2023/02/04 08:34:58;;;;;;;55.50;13.13;;;6.90;99.90;;;;;;5025934;28;20520;-90
2023/02/04 08:37:23;;;;;;;49.63;12.23;;;6.90;99.90;;;;;;5026765;28;20040;-90
2023/02/04 08:39:49;;;;;;;56.78;13.00;;;6.90;99.90;;;;;;5033528;28;20390;-90
2023/02/04 08:42:15;;;;;;;53.78;12.68;;;6.90;99.90;;;;;;5030242;28;20131;-91
2023/02/04 08:44:41;;;;;;;53.42;13.40;;;7.00;99.90;;;;;;5032614;28;20541;-90
2023/02/04 08:47:08;;;;;;;47.90;13.02;;;7.00;99.90;;;;;;5032620;28;20032;-90
2023/02/04 08:49:33;;;;;;;43.92;14.00;;;7.10;99.90;;;;;;5032465;28;20033;-90
2023/02/04 08:52:01;;;;;;;55.78;13.90;;;7.10;99.90;;;;;;5023828;28;20036;-89
2023/02/04 08:54:27;;;;;;;49.55;13.52;;;7.10;99.90;;;;;;5032004;28;20022;-87
2023/02/04 08:56:53;;;;;;;49.65;12.50;;;7.10;99.90;;;;;;5030190;28;20053;-90
2023/02/04 08:59:20;;;;;;;48.65;13.30;;;7.10;99.90;;;;;;5028419;28;20030;-90
2023/02/04 09:01:48;;;;;;;52.53;14.07;;;7.10;99.90;;;;;;5024030;28;20033;-89
2023/02/04 09:04:14;;;;;;;49.53;13.90;;;7.20;99.90;;;;;;5032784;28;20033;-90
2023/02/04 09:06:39;;;;;;;41.05;14.07;;;7.20;99.90;;;;;;5032685;28;20584;-89
2023/02/04 09:09:05;;;;;;;44.58;14.32;;;7.20;99.90;;;;;;5032463;28;20052;-89
2023/02/04 09:11:30;;;;;;;40.58;13.13;;;7.30;99.90;;;;;;5031755;28;20036;-90
2023/02/04 09:13:56;;;;;;;57.20;13.35;;;7.40;99.90;;;;;;5033317;28;20026;-89
2023/02/04 09:16:22;;;;;;;48.75;13.85;;;7.50;99.90;;;;;;5033491;28;20028;-89
2023/02/04 09:18:47;;;;;;;53.10;14.75;;;7.50;99.90;;;;;;5033083;28;20040;-90
2023/02/04 09:21:13;;;;;;;49.40;15.60;;;7.50;99.90;;;;;;5030192;28;20112;-89
2023/02/04 09:23:39;;;;;;;54.85;16.17;;;7.50;99.90;;;;;;5032566;28;20033;-89
2023/02/04 09:26:05;;;;;;;46.38;13.45;;;7.60;99.90;;;;;;5022089;28;20030;-89
2023/02/04 09:28:31;;;;;;;50.33;14.32;;;7.60;99.90;;;;;;5022326;28;20074;-89
2023/02/04 09:30:56;;;;;;;51.95;13.75;;;7.60;99.90;;;;;;5036447;28;20085;-89
2023/02/04 09:33:22;;;;;;;57.00;13.70;;;7.60;99.90;;;;;;5035375;28;20084;-89
2023/02/04 09:35:48;;;;;;;48.55;15.43;;;7.60;99.90;;;;;;5035942;28;20056;-89
2023/02/04 09:38:14;;;;;;;43.20;13.68;;;7.60;99.90;;;;;;5034725;28;20045;-89
2023/02/04 09:40:48;;;;;;;47.05;13.43;;;7.70;99.90;;;;;;5035890;28;20030;-89
2023/02/04 09:43:21;;;;;;;37.35;13.05;;;7.60;99.90;;;;;;5036281;28;20507;-89
2023/02/04 09:45:48;;;;;;;43.03;13.93;;;7.70;99.90;;;;;;5036261;28;20025;-89
2023/02/04 09:48:14;;;;;;;42.92;12.38;;;7.80;99.90;;;;;;5035816;28;20116;-90
2023/02/04 09:50:40;;;;;;;39.85;11.73;;;7.80;99.90;;;;;;5033893;28;20021;-90
2023/02/04 09:53:11;;;;;;;49.10;13.55;;;7.80;99.90;;;;;;5032713;28;20485;-90
2023/02/04 09:55:42;;;;;;;37.75;12.48;;;7.80;99.90;;;;;;5035427;28;20064;-88
2023/02/04 09:58:22;;;;;;;42.83;13.07;;;7.90;99.90;;;;;;5035432;28;20025;-90
2023/02/04 10:00:58;;;;;;;40.88;12.25;;;8.00;99.90;;;;;;5032183;28;20037;-90
2023/02/04 10:03:24;;;;;;;38.13;12.30;;;8.10;99.90;;;;;;5027586;28;20067;-89
2023/02/04 10:05:50;;;;;;;46.25;13.30;;;8.10;99.90;;;;;;5035298;28;20026;-89
2023/02/04 10:08:19;;;;;;;44.20;10.90;;;8.30;99.90;;;;;;5031061;28;20458;-89
2023/02/04 10:10:47;;;;;;;40.25;10.23;;;8.40;99.90;;;;;;5033844;28;20064;-89
2023/02/04 10:13:20;;;;;;;39.17;9.98;;;8.50;99.90;;;;;;5029719;28;20107;-89
2023/02/04 10:15:47;;;;;;;37.53;8.95;;;8.70;99.90;;;;;;5035274;28;20066;-90
2023/02/04 10:18:26;;;;;;;37.88;9.68;;;8.80;99.90;;;;;;5037215;28;20393;-90
2023/02/04 10:21:21;;;;;;;41.67;10.35;;;8.80;99.90;;;;;;5032454;28;20125;-89
2023/02/04 10:23:48;;;;;;;52.08;10.52;;;8.90;99.90;;;;;;5021807;28;20486;-89
2023/02/04 10:26:15;;;;;;;42.08;9.48;;;8.90;99.90;;;;;;5015762;28;20124;-90
2023/02/04 10:28:41;;;;;;;33.53;9.07;;;8.90;99.90;;;;;;5025399;28;20124;-90
2023/02/04 10:31:35;;;;;;;36.55;8.73;;;9.00;99.90;;;;;;5035317;28;20025;-89
2023/02/04 10:34:40;;;;;;;35.05;10.57;;;9.20;99.90;;;;;;5034256;28;20056;-89
2023/02/04 10:37:19;;;;;;;32.55;9.52;;;9.40;99.90;;;;;;4976604;28;20049;-89
2023/02/04 10:39:45;;;;;;;29.98;8.00;;;9.50;99.90;;;;;;4987425;28;20030;-91
2023/02/04 10:42:25;;;;;;;39.15;9.13;;;9.60;99.90;;;;;;5009503;28;20033;-88
2023/02/04 10:44:51;;;;;;;36.33;8.88;;;9.60;99.90;;;;;;5030270;28;20411;-88
2023/02/04 10:47:23;;;;;;;38.30;8.13;;;9.70;99.90;;;;;;5026096;28;20091;-88
2023/02/04 10:50:01;;;;;;;43.77;8.23;;;9.70;99.90;;;;;;5021214;28;20030;-88
2023/02/04 10:52:36;;;;;;;38.03;7.70;;;9.70;99.90;;;;;;5028259;28;20284;-88
2023/02/04 10:55:04;;;;;;;37.58;8.50;;;9.70;99.90;;;;;;5021220;28;20065;-89
2023/02/04 10:57:32;;;;;;;35.72;7.13;;;9.60;99.90;;;;;;5038262;28;20057;-89
2023/02/04 11:00:01;;;;;;;38.38;7.32;;;9.70;99.90;;;;;;5029553;28;20045;-90
2023/02/04 11:02:42;;;;;;;36.60;7.72;;;9.80;99.90;;;;;;5035515;28;20021;-90
2023/02/04 11:05:19;;;;;;;42.08;7.05;;;9.90;99.90;;;;;;5028389;28;20646;-89
2023/02/04 11:07:47;;;;;;;33.95;6.20;;;9.90;99.90;;;;;;5031948;28;20048;-89
2023/02/04 11:10:18;;;;;;;27.88;4.50;;;10.00;99.90;;;;;;5035864;28;20017;-89
2023/02/04 11:12:53;;;;;;;31.03;4.67;;;10.10;99.90;;;;;;5038792;28;20033;-89
2023/02/04 11:15:48;;;;;;;30.48;3.97;;;10.20;99.90;;;;;;5032815;28;20397;-89
2023/02/04 11:18:19;;;;;;;28.38;3.35;;;10.30;99.90;;;;;;5029663;28;20030;-89
2023/02/04 11:20:49;;;;;;;28.67;5.10;;;10.30;99.90;;;;;;5015500;28;20025;-89
2023/02/04 11:23:28;;;;;;;34.88;4.97;;;10.50;99.90;;;;;;5039399;28;20119;-88
2023/02/04 11:26:21;;;;;;;31.17;4.85;;;10.50;99.90;;;;;;5035589;28;20033;-89
2023/02/04 11:28:49;;;;;;;;;;;10.60;99.90;;;;;;5029365;28;20088;-90
2023/02/04 11:31:25;;;;;;;36.85;4.57;;;10.60;99.90;;;;;;5032445;28;20403;-89
2023/02/04 11:34:23;;;;;;;37.15;5.63;;;10.60;99.90;;;;;;5034067;28;20042;-90
2023/02/04 11:37:01;;;;;;;31.55;5.22;;;10.60;99.90;;;;;;5004546;28;20045;-89
2023/02/04 11:39:47;;;;;;;31.63;5.78;;;10.40;99.90;;;;;;5019701;28;20025;-90
2023/02/04 11:42:25;;;;;;;26.40;5.72;;;10.40;99.90;;;;;;5042089;28;20029;-90
2023/02/04 11:45:00;;;;;;;37.22;6.28;;;10.50;99.90;;;;;;5045114;28;20048;-90
2023/02/04 11:47:26;;;;;;;29.05;6.70;;;10.40;99.90;;;;;;5037451;28;20021;-89
2023/02/04 11:50:00;;;;;;;29.77;4.72;;;10.50;99.90;;;;;;5030142;28;20026;-89
2023/02/04 11:52:26;;;;;;;33.17;5.00;;;10.60;99.90;;;;;;5030944;28;20104;-89
2023/02/04 11:54:53;;;;;;;27.98;3.97;;;10.70;99.90;;;;;;5033319;28;20053;-89
2023/02/04 11:57:19;;;;;;;31.10;5.10;;;10.90;99.90;;;;;;5034339;28;20037;-89
2023/02/04 11:59:44;;;;;;;29.13;4.55;;;10.90;99.90;;;;;;5034117;28;20013;-89
2023/02/04 12:02:19;;;;;;;32.75;3.97;;;10.80;99.90;;;;;;5033778;28;20087;-89
2023/02/04 12:04:55;;;;;;;30.27;4.15;;;10.90;99.90;;;;;;5034722;28;20038;-90
2023/02/04 12:07:27;;;;;;;31.42;4.00;;;11.10;99.90;;;;;;5033553;28;20025;-89
2023/02/04 12:09:52;;;;;;;24.10;3.10;;;11.20;99.90;;;;;;5033901;28;20030;-91
2023/02/04 12:12:27;;;;;;;34.67;4.38;;;11.30;99.90;;;;;;5022440;28;20048;-89
2023/02/04 12:15:01;;;;;;;25.30;3.63;;;11.40;99.90;;;;;;5033309;28;20031;-89
2023/02/04 12:17:26;;;;;;;24.33;4.93;;;11.50;99.90;;;;;;5033153;28;20021;-89
2023/02/04 12:19:52;;;;;;;32.03;4.65;;;11.60;99.90;;;;;;5031908;28;20179;-90
2023/02/04 12:22:18;;;;;;;26.83;4.22;;;11.60;99.90;;;;;;5032865;28;20037;-90
2023/02/04 12:24:43;;;;;;;26.85;4.10;;;11.60;99.90;;;;;;5032601;28;20216;-90
2023/02/04 12:27:09;;;;;;;31.02;3.92;;;11.60;99.90;;;;;;5029241;28;20049;-90
2023/02/04 12:29:34;;;;;;;27.67;4.15;;;11.60;99.90;;;;;;5028128;28;20033;-89
2023/02/04 12:32:00;;;;;;;28.27;3.90;;;11.50;99.90;;;;;;5024739;28;20022;-89
2023/02/04 12:34:26;;;;;;;27.42;4.05;;;11.60;99.90;;;;;;5031479;28;20025;-89
2023/02/04 12:36:51;;;;;;;26.67;3.88;;;11.70;99.90;;;;;;5032981;28;20072;-90
2023/02/04 12:39:17;;;;;;;24.98;4.30;;;11.80;99.90;;;;;;5032565;28;20055;-89
2023/02/04 12:41:42;;;;;;;26.60;3.40;;;11.70;99.90;;;;;;5032936;28;20085;-89
2023/02/04 12:44:08;;;;;;;32.05;4.57;;;11.70;99.90;;;;;;5029447;28;20133;-89